createdAt,value
2018-12-06T00:03:35.793Z,54.57
2018-12-06T00:08:02.223Z,57.63
2018-12-06T00:12:07.305Z,54.33
2018-12-06T00:16:15.218Z,56.93
2018-12-06T00:20:22.359Z,57.70
2018-12-06T00:24:27.752Z,54.70
2018-12-06T00:28:33.130Z,54.83
2018-12-06T00:32:42.077Z,56.27
2018-12-06T00:36:47.446Z,55.43
2018-12-06T00:40:52.678Z,52.93
2018-12-06T00:45:02.579Z,50.30
2018-12-06T00:49:09.578Z,52.37
2018-12-06T00:53:14.767Z,49.00
2018-12-06T00:57:27.184Z,49.37
2018-12-06T01:01:32.939Z,47.73
2018-12-06T01:05:42.829Z,45.70
2018-12-06T01:09:49.517Z,42.83
2018-12-06T01:13:55.471Z,46.10
2018-12-06T01:18:02.408Z,45.30
2018-12-06T01:22:08.018Z,42.83
2018-12-06T01:26:13.186Z,43.17
2018-12-06T01:30:21.721Z,41.17
2018-12-06T01:34:27.752Z,45.00
2018-12-06T01:38:37.796Z,44.10
2018-12-06T01:42:42.824Z,41.67
2018-12-06T01:46:48.890Z,44.27
2018-12-06T01:50:56.949Z,44.53
2018-12-06T01:55:02.406Z,47.43
2018-12-06T01:59:07.508Z,45.53
2018-12-06T02:03:15.972Z,47.97
2018-12-06T02:07:21.056Z,47.50
2018-12-06T02:11:26.250Z,45.07
2018-12-06T02:15:31.389Z,45.90
2018-12-06T02:19:36.264Z,44.97
2018-12-06T02:23:41.375Z,44.77
2018-12-06T02:27:47.669Z,41.70
2018-12-06T02:31:52.597Z,45.50
2018-12-06T02:36:01.454Z,45.67
2018-12-06T02:40:07.309Z,49.10
2018-12-06T02:44:13.692Z,49.77
2018-12-06T02:48:22.228Z,46.83
2018-12-06T02:52:27.302Z,48.30
2018-12-06T02:56:33.275Z,48.63
2018-12-06T03:00:45.272Z,49.37
2018-12-06T03:04:52.245Z,46.57
2018-12-06T03:08:57.256Z,47.30
2018-12-06T03:17:10.966Z,50.03
2018-12-06T03:21:16.821Z,50.97
2018-12-06T03:25:21.875Z,53.17
2018-12-06T03:29:27.092Z,53.30
2018-12-06T03:33:32.068Z,54.43
2018-12-06T03:37:37.640Z,57.47
2018-12-06T03:41:46.848Z,54.57
2018-12-06T03:45:52.440Z,48.57
2018-12-06T03:49:58.787Z,51.63
2018-12-06T03:54:04.212Z,49.77
2018-12-06T03:58:10.016Z,47.47
2018-12-06T04:02:18.059Z,48.40
2018-12-06T04:06:23.204Z,45.23
2018-12-06T04:10:29.704Z,48.53
2018-12-06T04:14:39.163Z,48.60
2018-12-06T04:18:44.253Z,47.77
2018-12-06T04:22:51.324Z,49.00
2018-12-06T04:26:58.582Z,49.17
2018-12-06T04:31:05.526Z,50.23
2018-12-06T04:39:20.611Z,47.90
2018-12-06T04:43:26.076Z,52.70
2018-12-06T04:47:36.093Z,54.07
2018-12-06T04:51:42.456Z,56.80
2018-12-06T04:55:47.548Z,57.03
2018-12-06T04:59:53.271Z,53.50
2018-12-06T05:04:02.061Z,53.67
2018-12-06T05:08:07.822Z,56.30
2018-12-06T05:12:12.981Z,57.23
2018-12-06T05:16:25.551Z,55.10
2018-12-06T05:20:31.438Z,53.30
2018-12-06T05:28:49.824Z,54.33
2018-12-06T05:32:55.024Z,45.80
2018-12-06T05:37:09.589Z,46.87
2018-12-06T05:41:17.983Z,48.37
2018-12-06T05:45:23.447Z,52.43
2018-12-06T05:49:28.516Z,53.50
2018-12-06T05:53:43.484Z,54.93
2018-12-06T05:57:49.377Z,56.00
2018-12-06T06:01:59.089Z,55.80
2018-12-06T06:06:04.436Z,57.67
2018-12-06T06:10:09.596Z,56.97
2018-12-06T06:14:22.222Z,51.60
2018-12-06T06:18:27.558Z,46.77
2018-12-06T06:26:42.248Z,48.33
2018-12-06T06:30:47.501Z,45.20
2018-12-06T06:34:56.811Z,43.80
2018-12-06T06:39:02.630Z,41.00
2018-12-06T06:43:09.797Z,42.73
2018-12-06T06:47:15.135Z,42.87
2018-12-06T06:51:20.361Z,42.87
2018-12-06T06:55:26.216Z,40.83
2018-12-06T07:03:40.703Z,38.10
2018-12-06T07:07:46.706Z,36.07
2018-12-06T07:16:04.664Z,36.07
2018-12-06T07:20:09.843Z,36.33
2018-12-06T07:24:18.359Z,38.00
2018-12-06T07:28:23.357Z,36.43
2018-12-06T07:32:29.883Z,39.77
2018-12-06T07:36:38.198Z,40.93
2018-12-06T07:40:43.360Z,43.13
2018-12-06T07:44:48.524Z,44.27
2018-12-06T07:48:58.453Z,43.20
2018-12-06T07:53:03.641Z,41.33
2018-12-06T07:57:10.380Z,53.60
2018-12-06T08:01:18.120Z,47.63
2018-12-06T08:05:23.872Z,40.73
2018-12-06T08:09:28.911Z,43.30
2018-12-06T08:13:36.970Z,42.00
2018-12-06T08:17:46.272Z,39.33
2018-12-06T08:26:05.361Z,33.03
2018-12-06T08:30:10.791Z,33.67
2018-12-06T08:34:18.249Z,31.80
2018-12-06T08:38:23.727Z,32.33
2018-12-06T08:42:29.373Z,32.23
2018-12-06T08:46:39.100Z,33.50
2018-12-06T08:50:44.705Z,31.27
2018-12-06T08:54:51.238Z,32.07
2018-12-06T08:58:59.041Z,32.77
2018-12-06T09:03:06.266Z,34.93
2018-12-06T09:11:21.020Z,29.40
2018-12-06T09:15:28.349Z,36.37
2018-12-06T09:19:40.271Z,33.37
2018-12-06T09:23:45.746Z,39.03
2018-12-06T09:27:51.060Z,37.90
2018-12-06T09:32:04.480Z,39.20
2018-12-06T09:36:09.891Z,36.10
2018-12-06T09:40:18.725Z,36.87
2018-12-06T09:44:24.711Z,38.37
2018-12-06T09:48:31.144Z,40.17
2018-12-06T09:52:38.566Z,40.27
2018-12-06T10:01:06.883Z,43.07
2018-12-06T10:05:13.156Z,43.00
2018-12-06T10:09:21.079Z,40.10
2018-12-06T10:13:27.767Z,37.57
2018-12-06T10:17:33.148Z,41.10
2018-12-06T10:21:41.152Z,37.97
2018-12-06T10:25:46.385Z,38.20
2018-12-06T10:29:52.032Z,34.60
2018-12-06T10:33:58.306Z,32.93
2018-12-06T10:38:04.982Z,35.20
2018-12-06T10:42:10.448Z,34.50
2018-12-06T10:46:19.680Z,30.50
2018-12-06T10:50:25.167Z,34.47
2018-12-06T10:54:31.376Z,34.10
2018-12-06T10:58:38.296Z,33.93
2018-12-06T11:02:49.603Z,33.50
2018-12-06T11:06:54.838Z,35.60
2018-12-06T11:11:01.549Z,34.53
2018-12-06T11:15:07.100Z,31.73
2018-12-06T11:19:12.528Z,34.87
2018-12-06T11:23:17.768Z,32.13
2018-12-06T11:27:23.728Z,32.53
2018-12-06T11:31:29.077Z,30.97
2018-12-06T11:35:34.495Z,29.83
2018-12-06T11:39:39.827Z,32.20
2018-12-06T11:43:46.391Z,28.20
2018-12-06T11:47:51.619Z,29.30
2018-12-06T11:51:56.924Z,28.67
2018-12-06T11:56:02.561Z,30.07
2018-12-06T12:00:12.554Z,31.67
2018-12-06T12:04:18.611Z,31.33
2018-12-06T12:08:24.091Z,34.10
2018-12-06T12:12:32.057Z,33.13
2018-12-06T12:16:40.239Z,31.13
2018-12-06T12:20:45.634Z,31.83
2018-12-06T12:24:50.922Z,30.13
2018-12-06T12:28:57.823Z,29.10
2018-12-06T12:33:03.455Z,29.03
2018-12-06T12:37:08.886Z,28.17
2018-12-06T12:41:14.366Z,31.20
2018-12-06T12:45:19.694Z,28.70
2018-12-06T12:49:34.194Z,28.30
2018-12-06T12:53:39.475Z,28.07
2018-12-06T12:57:46.171Z,28.67
2018-12-06T13:01:52.609Z,29.13
2018-12-06T13:06:00.052Z,29.50
2018-12-06T13:10:05.834Z,28.57
2018-12-06T13:14:14.602Z,31.83
2018-12-06T13:18:20.001Z,30.90
2018-12-06T13:22:26.341Z,31.17
2018-12-06T13:26:33.414Z,33.47
2018-12-06T13:30:38.960Z,32.07
2018-12-06T13:34:44.277Z,32.33
2018-12-06T13:38:51.029Z,31.83
2018-12-06T13:42:58.559Z,33.30
2018-12-06T13:47:04.031Z,30.33
2018-12-06T13:51:10.353Z,32.83
2018-12-06T13:55:20.646Z,31.33
2018-12-06T13:59:28.042Z,33.73
2018-12-06T14:03:33.388Z,32.57
2018-12-06T14:07:40.296Z,30.07
2018-12-06T14:11:47.052Z,29.93
2018-12-06T14:15:52.520Z,29.23
2018-12-06T14:20:01.710Z,30.53
2018-12-06T14:24:07.218Z,28.00
2018-12-06T14:28:17.033Z,25.27
2018-12-06T14:32:22.284Z,30.60
2018-12-06T14:40:40.570Z,30.97
2018-12-06T14:44:47.194Z,31.33
2018-12-06T14:48:52.504Z,29.33
2018-12-06T14:52:57.975Z,32.50
2018-12-06T14:57:04.453Z,29.07
2018-12-06T15:01:11.224Z,31.97
2018-12-06T15:05:18.023Z,29.03
2018-12-06T15:09:23.984Z,30.33
2018-12-06T15:13:30.065Z,33.00
2018-12-06T15:17:36.031Z,30.60
2018-12-06T15:21:42.394Z,22.40
2018-12-06T15:25:48.007Z,31.13
2018-12-06T15:29:54.428Z,30.80
2018-12-06T15:34:00.904Z,31.37
2018-12-06T15:38:05.958Z,30.53
2018-12-06T15:42:11.276Z,31.00
2018-12-06T15:46:16.987Z,29.83
2018-12-06T15:50:22.520Z,29.97
2018-12-06T15:54:27.565Z,28.87
2018-12-06T15:58:33.014Z,28.63
2018-12-06T16:02:38.921Z,29.50
2018-12-06T16:06:46.252Z,27.23
2018-12-06T16:10:52.045Z,31.57
2018-12-06T16:14:57.600Z,27.97
2018-12-06T16:19:02.975Z,23.43
2018-12-06T16:23:08.988Z,28.00
2018-12-06T16:27:15.095Z,23.37
2018-12-06T16:31:23.717Z,28.33
2018-12-06T16:35:28.736Z,28.30
2018-12-06T16:39:34.798Z,29.00
2018-12-06T16:43:41.633Z,27.40
2018-12-06T16:47:48.117Z,29.93
2018-12-06T16:51:54.040Z,26.47
2018-12-06T16:56:00.733Z,26.90
2018-12-06T17:00:09.437Z,26.67
2018-12-06T17:04:16.591Z,23.13
2018-12-06T17:08:21.753Z,22.07
2018-12-06T17:12:28.503Z,22.30
2018-12-06T17:16:34.729Z,26.93
2018-12-06T17:20:41.965Z,22.87
2018-12-06T17:24:47.078Z,23.93
2018-12-06T17:28:53.914Z,26.37
2018-12-06T17:33:34.113Z,27.73
2018-12-06T17:37:42.679Z,24.93
2018-12-06T17:41:51.750Z,23.47
2018-12-06T17:46:02.868Z,28.20
2018-12-06T17:50:08.613Z,27.43
2018-12-06T17:54:14.335Z,27.47
2018-12-06T17:58:20.138Z,25.77
2018-12-06T18:02:28.350Z,28.60
2018-12-06T18:06:35.196Z,29.13
2018-12-06T18:10:45.139Z,29.67
2018-12-06T18:14:51.570Z,30.77
2018-12-06T18:18:57.827Z,29.67
2018-12-06T18:23:13.075Z,29.20
2018-12-06T18:27:18.593Z,31.37
2018-12-06T18:31:28.097Z,27.90
2018-12-06T18:35:35.006Z,24.17
2018-12-06T18:39:42.021Z,28.63
2018-12-06T18:43:57.100Z,26.73
2018-12-06T18:48:07.018Z,28.83
2018-12-06T18:52:15.312Z,31.63
2018-12-06T19:00:35.671Z,32.23
2018-12-06T19:04:41.346Z,28.77
2018-12-06T19:08:56.873Z,30.97
2018-12-06T19:17:15.895Z,28.57
2018-12-06T19:25:33.835Z,28.10
2018-12-06T19:29:40.322Z,30.57
2018-12-06T19:33:52.781Z,30.77
2018-12-06T19:37:59.802Z,31.13
2018-12-06T19:42:06.994Z,33.17
2018-12-06T19:50:21.266Z,34.10
2018-12-06T19:54:27.623Z,31.60
2018-12-06T19:58:33.921Z,31.67
2018-12-06T20:02:43.011Z,31.87
2018-12-06T20:06:48.979Z,31.17
2018-12-06T20:10:56.638Z,32.43
2018-12-06T20:15:02.151Z,28.93
2018-12-06T20:19:10.998Z,32.97
2018-12-06T20:23:17.309Z,35.97
2018-12-06T20:27:23.498Z,34.77
2018-12-06T20:33:07.337Z,33.60
2018-12-06T20:41:20.790Z,36.13
2018-12-06T20:45:25.901Z,39.30
2018-12-06T20:49:31.151Z,37.23
2018-12-06T20:53:43.220Z,33.90
2018-12-06T20:57:48.387Z,35.83
2018-12-06T21:01:57.877Z,35.23
2018-12-06T21:06:04.138Z,37.33
2018-12-06T21:10:09.283Z,37.97
2018-12-06T21:14:22.113Z,35.23
2018-12-06T21:18:25.830Z,37.67
2018-12-06T21:22:40.504Z,38.83
2018-12-06T21:26:45.606Z,35.27
2018-12-06T21:30:50.864Z,38.83
2018-12-06T21:35:03.935Z,36.10
2018-12-06T21:39:10.530Z,38.27
2018-12-06T21:43:23.105Z,30.20
2018-12-06T21:47:28.770Z,38.30
2018-12-06T21:51:37.850Z,34.30
2018-12-06T21:55:44.063Z,36.27
2018-12-06T21:59:49.785Z,32.70
2018-12-06T22:03:54.821Z,36.93
2018-12-06T22:08:04.460Z,41.63
2018-12-06T22:12:11.667Z,39.67
2018-12-06T22:20:26.253Z,34.20
2018-12-06T22:24:33.107Z,37.43
2018-12-06T22:28:39.023Z,38.23
2018-12-06T22:32:44.371Z,38.00
2018-12-06T22:36:49.656Z,33.37
2018-12-06T22:40:56.375Z,38.57
2018-12-06T22:46:07.840Z,35.03
2018-12-06T22:50:13.142Z,36.63
2018-12-06T22:54:18.614Z,39.43
2018-12-06T22:58:23.992Z,37.93
2018-12-06T23:02:33.533Z,37.97
2018-12-06T23:06:39.894Z,37.20
2018-12-06T23:10:45.399Z,37.63
2018-12-06T23:14:54.204Z,36.53
2018-12-06T23:19:00.164Z,34.87
2018-12-06T23:23:05.831Z,35.83
2018-12-06T23:27:15.325Z,37.63
2018-12-06T23:31:21.917Z,36.20
2018-12-06T23:35:31.540Z,37.03
2018-12-06T23:39:36.566Z,34.77
2018-12-06T23:43:41.821Z,37.00
2018-12-06T23:51:57.164Z,36.67
2018-12-06T23:56:02.434Z,35.03
